Time;durP1;ratioP1;P1;durP2;ratioP2;P2;SDS_P1;SDS_P2;PMS_P1;PMS_P2;Temp;Humidity;BMP_temperature;BMP_pressure;BME280_temperature;BME280_humidity;BME280_pressure;Samples;Min_cycle;Max_cycle;Signal;HPM_P1;HPM_P2
2021/03/01 00:00:12;;;;;;;;;54.00;45.25;;;;;4.38;73.14;101971.41;5084312;28;11496;-73
2021/03/01 00:03:08;;;;;;;;;52.25;42.00;;;;;4.47;72.86;101970.69;5068292;28;11464;-73
2021/03/01 00:05:36;;;;;;;;;55.50;48.50;;;;;4.50;72.97;101965.78;5082132;28;11599;-72
2021/03/01 00:08:18;;;;;;;;;47.75;41.00;;;;;4.39;73.62;101970.34;5080890;28;11483;-73
2021/03/01 00:11:13;;;;;;;;;41.50;37.25;;;;;4.42;73.00;101965.16;5069280;28;11612;-73
2021/03/01 00:14:09;;;;;;;;;43.50;40.75;;;;;4.19;74.10;101960.78;5080107;28;11493;-73
2021/03/01 00:17:05;;;;;;;;;41.50;40.50;;;;;4.44;73.32;101964.88;5082024;28;11509;-72
2021/03/01 00:20:01;;;;;;;;;42.00;40.75;;;;;4.46;73.23;101955.34;5081708;28;11511;-73
2021/03/01 00:22:56;;;;;;;;;32.25;32.25;;;;;4.57;72.83;101959.00;5083352;28;11482;-73
2021/03/01 00:25:52;;;;;;;;;38.00;38.00;;;;;4.54;72.90;101965.00;5079211;28;11604;-72
2021/03/01 00:28:48;;;;;;;;;34.00;33.25;;;;;4.53;73.01;101962.53;5081493;28;11496;-73
2021/03/01 00:31:43;;;;;;;;;37.50;37.50;;;;;4.57;72.57;101964.47;5080831;28;11539;-72
2021/03/01 00:34:39;;;;;;;;;44.75;40.50;;;;;4.61;72.64;101964.78;5083827;28;12346;-73
2021/03/01 00:37:35;;;;;;;;;47.50;43.00;;;;;4.43;73.20;101969.53;5083543;28;11475;-73
2021/03/01 00:40:31;;;;;;;;;41.75;40.00;;;;;4.66;72.77;101962.91;5081816;28;11478;-72
2021/03/01 00:43:31;;;;;;;;;43.25;40.25;;;;;4.64;72.81;101973.31;5081962;28;11483;-72
2021/03/01 00:46:27;;;;;;;;;44.75;43.00;;;;;4.68;72.61;101971.72;5083637;28;11485;-73
2021/03/01 00:49:23;;;;;;;;;41.50;38.75;;;;;4.47;72.91;101965.22;5067255;28;11585;-72
2021/03/01 00:52:19;;;;;;;;;45.50;40.00;;;;;4.52;72.98;101967.16;5083535;28;12240;-72
2021/03/01 00:55:16;;;;;;;;;48.50;44.25;;;;;4.59;72.72;101962.28;5083532;28;11610;-72
2021/03/01 00:58:12;;;;;;;;;53.75;40.50;;;;;4.52;72.83;101969.06;5083839;28;11552;-73
2021/03/01 01:00:39;;;;;;;;;45.25;42.25;;;;;4.41;72.93;101968.16;5081299;28;11496;-72
2021/03/01 01:03:34;;;;;;;;;44.25;41.25;;;;;4.42;73.03;101972.53;5082481;28;11623;-72
2021/03/01 01:06:30;;;;;;;;;49.75;43.25;;;;;4.14;73.31;101976.34;5080517;28;12293;-72
2021/03/01 01:09:26;;;;;;;;;51.50;46.25;;;;;4.22;73.53;101980.53;5080869;28;11475;-73
2021/03/01 01:12:22;;;;;;;;;45.25;41.50;;;;;4.25;73.63;101988.25;5070185;28;11476;-72
2021/03/01 01:15:19;;;;;;;;;40.50;38.25;;;;;4.18;74.20;101985.72;5083688;28;11489;-72
2021/03/01 01:17:47;;;;;;;;;45.33;41.33;;;;;4.16;74.00;101980.50;5082077;28;11466;-73
2021/03/01 01:20:42;;;;;;;;;50.67;43.33;;;;;4.32;73.80;101981.50;5067102;28;11530;-74
2021/03/01 01:23:38;;;;;;;;;41.75;40.50;;;;;4.26;74.60;101988.00;5079069;28;11468;-73
2021/03/01 01:26:19;;;;;;;;;48.00;44.25;;;;;4.24;74.60;101986.59;5073191;28;11510;-73
2021/03/01 01:29:15;;;;;;;;;41.25;40.50;;;;;4.19;74.26;101979.97;5082109;28;11474;-73
2021/03/01 01:32:10;;;;;;;;;38.00;34.75;;;;;4.28;74.18;101988.56;5083733;28;11480;-72
2021/03/01 01:35:08;;;;;;;;;33.25;33.25;;;;;4.30;74.19;101988.31;5084643;28;11482;-73
2021/03/01 01:38:05;;;;;;;;;34.75;31.25;;;;;4.27;74.27;101995.13;5082237;28;11489;-73
2021/03/01 01:41:01;;;;;;;;;44.75;39.25;;;;;4.19;74.14;101993.66;5082228;28;11449;-73
2021/03/01 01:43:56;;;;;;;;;38.75;35.50;;;;;4.16;74.46;101996.09;5081986;28;11475;-73
2021/03/01 01:46:24;;;;;;;;;40.50;39.25;;;;;4.25;74.36;102000.03;5064009;28;11683;-73
2021/03/01 01:49:20;;;;;;;;;40.25;36.25;;;;;4.36;73.45;101995.47;5082105;28;11475;-72
2021/03/01 01:52:17;;;;;;;;;37.50;32.25;;;;;4.41;73.78;101996.38;5080545;28;11455;-73
2021/03/01 01:55:15;;;;;;;;;39.75;38.25;;;;;4.37;73.54;102008.09;5068068;28;11563;-72
2021/03/01 01:58:11;;;;;;;;;40.50;39.25;;;;;4.35;73.76;102005.59;5082438;28;11467;-73
2021/03/01 02:01:06;;;;;;;;;38.50;37.50;;;;;4.23;73.78;102012.34;5077237;28;11506;-73
2021/03/01 02:04:08;;;;;;;;;30.50;27.75;;;;;4.29;73.86;102009.38;5087615;28;11474;-73
2021/03/01 02:07:11;;;;;;;;;35.00;31.75;;;;;4.16;73.99;102013.34;5081177;28;12248;-73
2021/03/01 02:10:12;;;;;;;;;37.00;35.25;;;;;4.19;73.94;102021.03;5085393;28;11495;-73
2021/03/01 02:13:20;;;;;;;;;35.00;34.00;;;;;4.10;74.33;102025.31;5085611;28;11463;-73
2021/03/01 02:16:28;;;;;;;;;35.50;35.50;;;;;4.05;74.62;102022.50;5085084;28;11445;-73
2021/03/01 02:19:24;;;;;;;;;40.75;39.75;;;;;4.12;74.39;102019.59;5082759;28;11537;-73
2021/03/01 02:21:55;;;;;;;;;42.25;37.25;;;;;4.09;74.41;102029.16;5086124;28;11486;-72
2021/03/01 02:25:22;;;;;;;;;34.67;34.67;;;;;4.12;74.46;102036.00;5083994;28;12474;-73
2021/03/01 02:28:22;;;;;;;;;35.00;31.67;;;;;3.88;75.55;102032.69;5085792;28;11469;-73
2021/03/01 02:31:19;;;;;;;;;37.25;35.50;;;;;4.01;75.18;102036.97;5085230;28;11465;-73
2021/03/01 02:34:18;;;;;;;;;31.00;28.25;;;;;4.01;74.84;102043.28;5085128;28;11595;-73
2021/03/01 02:37:19;;;;;;;;;34.00;33.50;;;;;4.16;74.33;102046.22;5082743;28;11509;-73
2021/03/01 02:40:18;;;;;;;;;49.33;43.33;;;;;4.02;74.59;102049.59;5084332;28;11467;-73
2021/03/01 02:43:16;;;;;;;;;35.50;35.50;;;;;3.85;74.85;102053.19;5084415;28;11489;-73
2021/03/01 02:46:13;;;;;;;;;36.00;35.50;;;;;3.98;74.90;102057.47;5085444;28;11500;-73
2021/03/01 02:49:10;;;;;;;;;40.67;40.33;;;;;3.84;75.18;102056.19;5083059;28;11500;-73
2021/03/01 02:52:07;;;;;;;;;43.50;40.25;;;;;4.04;74.86;102059.19;5082875;28;11470;-73
2021/03/01 02:55:04;;;;;;;;;46.33;41.67;;;;;4.07;74.84;102055.97;5086916;28;11496;-73
2021/03/01 02:57:47;;;;;;;;;46.25;41.50;;;;;4.01;75.17;102062.44;5083417;28;11495;-73
2021/03/01 03:00:45;;;;;;;;;38.67;38.67;;;;;4.14;74.91;102058.47;5084428;28;11493;-73
2021/03/01 03:03:41;;;;;;;;;36.75;36.75;;;;;3.95;75.34;102065.38;5081329;28;12198;-73
2021/03/01 03:06:38;;;;;;;;;42.75;39.50;;;;;4.03;75.08;102064.91;5083616;28;12237;-73
2021/03/01 03:09:35;;;;;;;;;41.50;40.00;;;;;3.96;75.29;102070.56;5086029;28;11487;-73
2021/03/01 03:12:25;;;;;;;;;32.25;32.25;;;;;3.96;74.94;102067.00;5082369;28;11463;-73
2021/03/01 03:15:22;;;;;;;;;44.50;40.50;;;;;4.02;75.21;102068.75;5083758;28;11480;-72
2021/03/01 03:18:22;;;;;;;;;34.75;33.50;;;;;3.95;75.23;102068.09;5088518;28;11488;-73
2021/03/01 03:21:20;;;;;;;;;39.00;38.50;;;;;3.95;75.33;102068.94;5075272;28;11470;-72
2021/03/01 03:24:16;;;;;;;;;27.75;27.75;;;;;4.23;74.51;102075.31;5084259;28;11578;-73
2021/03/01 03:27:12;;;;;;;;;35.75;33.25;;;;;4.19;74.56;102077.72;5083434;28;12309;-73
2021/03/01 03:30:14;;;;;;;;;27.50;27.50;;;;;4.05;74.78;102077.25;5068553;28;11469;-73
2021/03/01 03:32:43;;;;;;;;;34.25;34.25;;;;;4.03;74.47;102073.97;5087923;28;11494;-73
2021/03/01 03:35:16;;;;;;;;;39.00;37.00;;;;;3.97;74.72;102085.09;5085896;28;11484;-73
2021/03/01 03:38:11;;;;;;;;;36.50;35.25;;;;;3.95;75.65;102081.78;5084885;28;11584;-72
2021/03/01 03:41:09;;;;;;;;;39.50;37.00;;;;;4.07;75.04;102082.50;5084922;28;11497;-73
2021/03/01 03:43:40;;;;;;;;;33.00;33.00;;;;;4.01;75.27;102087.09;5081759;28;11480;-72
2021/03/01 03:46:38;;;;;;;;;48.00;40.25;;;;;4.07;75.04;102079.78;5082524;28;11490;-72
2021/03/01 03:49:10;;;;;;;;;42.75;38.50;;;;;3.97;75.15;102085.09;5085059;28;11512;-73
2021/03/01 03:52:08;;;;;;;;;42.00;40.25;;;;;3.88;75.29;102092.91;5081000;28;11475;-73
2021/03/01 03:55:06;;;;;;;;;42.00;40.50;;;;;4.12;74.90;102083.38;5084262;28;11455;-72
2021/03/01 03:57:37;;;;;;;;;46.00;42.33;;;;;4.14;74.43;102083.13;5082169;28;11488;-70
2021/03/01 04:00:09;;;;;;;;;42.75;41.50;;;;;3.96;75.10;102088.91;5074827;28;11460;-72
2021/03/01 04:03:09;;;;;;;;;41.33;38.67;;;;;3.92;75.30;102094.06;5072790;28;11526;-73
2021/03/01 04:06:06;;;;;;;;;50.33;44.33;;;;;3.90;75.57;102097.03;5082200;28;11564;-73
2021/03/01 04:09:06;;;;;;;;;44.33;41.67;;;;;3.99;75.21;102104.81;5084938;28;12231;-72
2021/03/01 04:12:03;;;;;;;;;63.00;52.67;;;;;4.06;74.64;102106.28;5081109;28;12419;-72
2021/03/01 04:15:00;;;;;;;;;66.33;54.00;;;;;3.83;75.25;102112.84;5075680;28;8925;-73
2021/03/01 04:17:58;;;;;;;;;73.33;60.67;;;;;3.88;75.39;102117.53;5087554;28;8805;-74
2021/03/01 04:20:55;;;;;;;;;71.33;55.33;;;;;3.80;75.60;102121.53;5086823;28;8855;-74
2021/03/01 04:23:53;;;;;;;;;62.00;52.00;;;;;3.79;75.90;102119.06;5083112;28;8799;-73
2021/03/01 04:26:49;;;;;;;;;75.33;58.67;;;;;3.89;75.50;102130.16;5082636;28;8815;-73
2021/03/01 04:29:56;;;;;;;;;58.33;48.67;;;;;4.01;75.21;102130.88;5086341;28;8896;-74
2021/03/01 04:32:52;;;;;;;;;67.67;56.00;;;;;3.94;74.82;102129.41;5079248;28;8823;-73
2021/03/01 04:35:35;;;;;;;;;52.67;47.33;;;;;3.82;75.01;102129.50;5084369;28;8926;-73
2021/03/01 04:38:32;;;;;;;;;62.33;52.33;;;;;3.93;74.50;102128.56;5082991;28;8808;-74
2021/03/01 04:41:28;;;;;;;;;54.33;47.67;;;;;3.89;74.37;102130.97;5069375;28;8872;-74
2021/03/01 04:43:57;;;;;;;;;49.67;45.33;;;;;3.92;74.58;102140.63;5083381;28;8837;-74
2021/03/01 04:46:53;;;;;;;;;55.00;45.67;;;;;3.92;74.66;102139.78;5068439;28;11525;-74
2021/03/01 04:49:50;;;;;;;;;48.33;44.00;;;;;4.09;73.72;102146.06;5086730;28;11470;-74
2021/03/01 04:52:47;;;;;;;;;42.00;41.00;;;;;4.10;73.72;102154.00;5086347;28;11461;-75
2021/03/01 04:55:47;;;;;;;;;38.00;29.33;;;;;4.08;74.12;102160.84;5082285;28;11471;-75
2021/03/01 04:58:43;;;;;;;;;42.67;41.00;;;;;4.12;73.71;102161.97;5081150;28;11472;-74
2021/03/01 05:01:42;;;;;;;;;51.33;44.00;;;;;4.11;73.92;102168.53;5079904;28;11459;-75
2021/03/01 05:04:39;;;;;;;;;59.00;51.67;;;;;4.10;74.14;102173.19;5082913;28;12205;-74
2021/03/01 05:07:36;;;;;;;;;67.00;55.00;;;;;4.07;74.01;102178.34;5073119;28;8859;-75
2021/03/01 05:10:34;;;;;;;;;73.67;59.00;;;;;4.10;74.12;102172.34;5083345;28;8827;-73
2021/03/01 05:13:30;;;;;;;;;75.67;58.00;;;;;4.04;74.08;102179.66;5083072;28;8825;-74
2021/03/01 05:16:28;;;;;;;;;83.00;66.00;;;;;3.86;75.10;102178.03;5079347;28;8845;-73
2021/03/01 05:19:24;;;;;;;;;40.75;38.00;;;;;3.97;74.37;102192.69;5082957;28;8813;-75
2021/03/01 05:21:52;;;;;;;;;50.50;46.00;;;;;4.08;74.08;102200.00;5082962;28;11480;-74
2021/03/01 05:24:47;;;;;;;;;39.00;38.25;;;;;4.08;74.22;102194.50;5067976;28;11468;-74
2021/03/01 05:27:43;;;;;;;;;74.00;60.00;;;;;4.20;74.14;102199.88;5076510;28;11485;-74
2021/03/01 05:30:39;;;;;;;;;85.33;69.00;;;;;4.24;74.00;102214.75;5082363;28;8835;-75
2021/03/01 05:33:35;;;;;;;;;55.67;49.00;;;;;4.38;73.35;102213.31;5080323;28;8794;-75
2021/03/01 05:36:31;;;;;;;;;61.33;52.00;;;;;4.23;73.40;102217.75;5080494;28;8823;-75
2021/03/01 05:39:27;;;;;;;;;37.50;33.50;;;;;4.06;73.88;102215.00;5090954;28;8819;-75
2021/03/01 05:42:25;;;;;;;;;59.33;50.33;;;;;4.09;73.94;102230.94;5083190;28;11494;-74
2021/03/01 05:45:21;;;;;;;;;45.67;41.67;;;;;4.05;73.66;102235.25;5070776;28;8844;-74
2021/03/01 05:48:24;;;;;;;;;49.67;45.33;;;;;4.13;73.51;102232.09;5086859;28;12200;-73
2021/03/01 05:51:23;;;;;;;;;64.00;52.00;;;;;4.31;73.33;102239.22;5087081;28;11490;-75
2021/03/01 05:54:20;;;;;;;;;31.33;27.67;;;;;4.50;73.45;102246.06;5075845;28;11584;-75
2021/03/01 05:57:18;;;;;;;;;58.00;50.33;;;;;4.54;73.53;102249.97;5086904;28;8836;-74
2021/03/01 05:59:52;;;;;;;;;66.33;53.00;;;;;4.44;73.35;102247.88;5086865;28;8843;-76
2021/03/01 06:02:20;;;;;;;;;66.67;54.00;;;;;4.66;72.70;102256.16;5088347;28;8894;-75
2021/03/01 06:04:48;;;;;;;;;59.67;51.00;;;;;4.70;72.64;102256.50;5091149;28;8866;-75
2021/03/01 06:07:15;;;;;;;;;67.00;53.00;;;;;4.69;72.61;102260.31;5085465;28;8934;-74
2021/03/01 06:09:42;;;;;;;;;67.67;56.00;;;;;4.76;72.59;102269.19;5084588;28;8834;-74
2021/03/01 06:12:10;;;;;;;;;57.33;48.67;;;;;4.87;72.21;102272.88;5084391;28;8835;-74
2021/03/01 06:14:37;;;;;;;;;65.67;54.33;;;;;4.77;72.18;102275.50;5085444;28;8868;-74
2021/03/01 06:17:14;;;;;;;;;58.00;50.00;;;;;4.80;71.32;102275.81;5068619;28;8809;-75
2021/03/01 06:19:51;;;;;;;;;62.33;53.33;;;;;4.96;70.94;102276.84;5077164;28;11474;-74
2021/03/01 06:22:22;;;;;;;;;65.67;52.33;;;;;4.89;70.51;102278.94;5085954;28;8859;-74
2021/03/01 06:25:14;;;;;;;;;62.00;50.67;;;;;5.00;71.08;102278.00;5068701;28;11529;-75
2021/03/01 06:28:01;;;;;;;;;66.00;55.33;;;;;5.07;71.23;102286.88;5086272;28;11492;-74
2021/03/01 06:30:31;;;;;;;;;72.00;58.33;;;;;4.92;71.84;102282.00;5086152;28;8906;-75
2021/03/01 06:33:11;;;;;;;;;64.33;55.33;;;;;5.08;71.21;102293.19;5076336;28;8801;-74
2021/03/01 06:35:40;;;;;;;;;52.33;44.33;;;;;5.15;70.53;102282.84;5068849;28;8843;-74
2021/03/01 06:38:35;;;;;;;;;59.50;49.00;;;;;5.12;69.72;102297.06;5086210;28;11551;-74
2021/03/01 06:41:18;;;;;;;;;49.50;43.75;;;;;4.91;69.93;102304.22;5086178;28;11621;-74
2021/03/01 06:43:58;;;;;;;;;57.75;48.25;;;;;4.96;69.76;102296.03;5086026;28;11484;-75
2021/03/01 06:46:33;;;;;;;;;50.00;44.75;;;;;5.06;70.00;102293.44;5067867;28;11503;-75
2021/03/01 06:49:15;;;;;;;;;54.50;47.25;;;;;4.92;69.86;102303.13;5075899;28;12222;-75
2021/03/01 06:51:44;;;;;;;;;60.00;51.00;;;;;5.11;69.81;102303.63;5067478;28;11510;-75
2021/03/01 06:54:22;;;;;;;;;61.00;51.67;;;;;5.24;69.72;102295.03;5069324;28;11507;-75
2021/03/01 06:56:50;;;;;;;;;46.75;44.00;;;;;5.30;69.25;102308.53;5085635;28;11491;-75
2021/03/01 06:59:18;;;;;;;;;61.75;50.50;;;;;5.40;68.75;102307.81;5084569;28;11568;-75
2021/03/01 07:01:56;;;;;;;;;59.00;49.00;;;;;5.56;68.81;102306.91;5083624;28;11484;-74
2021/03/01 07:04:32;;;;;;;;;64.00;51.50;;;;;5.62;68.07;102316.03;5083895;28;11535;-74
2021/03/01 07:07:01;;;;;;;;;64.33;55.33;;;;;5.48;68.27;102318.34;5101215;28;11515;-74
2021/03/01 07:09:32;;;;;;;;;68.00;55.00;;;;;5.70;67.98;102318.31;5103848;28;11519;-75
2021/03/01 07:11:59;;;;;;;;;50.50;45.75;;;;;5.73;67.16;102319.72;5103796;28;11479;-74
2021/03/01 07:14:28;;;;;;;;;44.25;42.25;;;;;5.82;66.58;102323.63;5080370;28;11525;-75
2021/03/01 07:16:57;;;;;;;;;53.50;47.50;;;;;5.77;66.25;102321.69;5087644;28;11486;-76
2021/03/01 07:19:32;;;;;;;;;61.75;51.00;;;;;5.66;66.38;102322.66;5098079;28;11491;-75
2021/03/01 07:22:06;;;;;;;;;44.50;40.50;;;;;5.80;66.27;102321.16;5105708;28;11528;-74
2021/03/01 07:24:34;;;;;;;;;63.50;50.75;;;;;5.70;65.96;102323.81;5088975;28;11519;-76
2021/03/01 07:27:05;;;;;;;;;49.75;43.75;;;;;5.85;65.40;102325.88;5083688;28;11484;-75
2021/03/01 07:29:36;;;;;;;;;35.50;34.75;;;;;5.95;64.80;102326.00;5083755;28;11547;-75
2021/03/01 07:32:12;;;;;;;;;38.00;36.00;;;;;6.01;64.50;102327.72;5083543;28;11506;-75
2021/03/01 07:34:44;;;;;;;;;29.00;25.00;;;;;5.67;63.51;102338.03;5066316;28;11474;-75
2021/03/01 07:37:12;;;;;;;;;31.50;27.00;;;;;5.95;63.73;102341.66;5084505;28;11499;-77
2021/03/01 07:39:40;;;;;;;;;36.00;36.00;;;;;5.94;63.93;102337.25;5084358;28;11467;-77
2021/03/01 07:42:12;;;;;;;;;45.25;39.50;;;;;6.03;63.12;102338.44;5085846;28;11465;-77
2021/03/01 07:44:39;;;;;;;;;38.75;37.50;;;;;6.28;63.47;102337.84;5066878;28;11520;-77
2021/03/01 07:47:08;;;;;;;;;33.75;32.50;;;;;6.39;63.09;102351.41;5091101;28;11498;-75
2021/03/01 07:49:48;;;;;;;;;25.25;24.75;;;;;6.25;62.09;102349.34;5084004;28;11576;-76
2021/03/01 07:52:44;;;;;;;;;26.75;26.75;;;;;6.28;62.39;102349.66;5084069;28;11499;-76
2021/03/01 07:55:21;;;;;;;;;26.50;25.50;;;;;6.52;62.30;102344.66;5066670;28;10979;-76
2021/03/01 07:58:22;;;;;;;;;30.75;30.75;;;;;6.59;61.92;102347.16;5071733;28;11471;-75
2021/03/01 08:01:18;;;;;;;;;27.25;26.50;;;;;6.61;60.90;102350.47;5068554;28;11488;-76
2021/03/01 08:04:31;;;;;;;;;24.75;24.75;;;;;6.48;60.18;102356.41;5072177;28;11569;-77
2021/03/01 08:07:42;;;;;;;;;29.50;28.00;;;;;6.72;60.49;102359.63;5085061;28;12210;-76
2021/03/01 08:10:38;;;;;;;;;40.75;38.25;;;;;6.37;60.58;102355.53;5071120;28;11508;-76
2021/03/01 08:13:31;;;;;;;;;44.75;39.25;;;;;6.55;61.10;102354.28;5073894;28;11616;-77
2021/03/01 08:16:23;;;;;;;;;30.25;30.00;;;;;6.61;60.45;102361.47;5057961;28;11523;-75
2021/03/01 08:18:57;;;;;;;;;43.50;40.50;;;;;6.54;61.61;102363.63;5076738;28;10998;-75
2021/03/01 08:22:03;;;;;;;;;38.75;38.50;;;;;6.44;62.77;102364.38;5064868;28;12269;-75
2021/03/01 08:24:50;;;;;;;;;35.50;35.00;;;;;6.56;62.04;102369.69;5068783;28;11550;-75
2021/03/01 08:27:45;;;;;;;;;39.00;35.25;;;;;6.63;61.74;102373.03;5073252;28;11558;-76
2021/03/01 08:30:42;;;;;;;;;41.25;37.50;;;;;6.40;63.14;102371.47;5064986;28;11482;-76
2021/03/01 08:33:28;;;;;;;;;34.75;31.50;;;;;6.04;63.49;102373.88;5053382;28;11603;-75
2021/03/01 08:36:00;;;;;;;;;37.50;37.50;;;;;6.24;63.81;102378.75;5037345;28;11530;-75
2021/03/01 08:38:56;;;;;;;;;37.25;35.50;;;;;6.64;62.17;102385.69;5054453;28;11642;-77
2021/03/01 08:41:55;;;;;;;;;37.25;34.75;;;;;6.58;62.24;102382.06;5065046;28;11687;-76
2021/03/01 08:44:52;;;;;;;;;29.25;29.25;;;;;6.67;61.08;102390.66;5072391;28;11556;-76
2021/03/01 08:47:51;;;;;;;;;36.00;30.25;;;;;6.67;60.45;102391.50;5073182;28;11547;-76
2021/03/01 08:50:49;;;;;;;;;11.00;10.25;;;;;6.51;57.00;102389.69;5073221;28;11544;-76
2021/03/01 08:53:46;;;;;;;;;18.25;17.75;;;;;6.45;57.75;102389.94;5059458;28;11492;-76
2021/03/01 08:56:42;;;;;;;;;21.75;20.25;;;;;6.44;58.26;102389.13;5066232;28;11527;-77
2021/03/01 08:59:26;;;;;;;;;19.75;19.50;;;;;6.46;58.64;102386.09;5067014;28;11511;-76
2021/03/01 09:02:21;;;;;;;;;8.00;8.00;;;;;6.60;55.83;102398.31;5070233;28;11651;-76
2021/03/01 09:05:17;;;;;;;;;25.25;24.25;;;;;6.81;56.09;102399.28;5070003;28;11559;-76
2021/03/01 09:08:14;;;;;;;;;23.75;23.50;;;;;6.29;58.64;102400.78;5048248;28;11751;-76
2021/03/01 09:10:49;;;;;;;;;22.00;22.00;;;;;6.43;59.46;102392.09;5073041;28;11632;-74
2021/03/01 09:13:47;;;;;;;;;19.75;19.75;;;;;6.45;58.17;102403.69;5072668;28;11508;-74
2021/03/01 09:16:44;;;;;;;;;11.25;11.25;;;;;6.29;57.35;102403.53;5096773;28;11521;-76
2021/03/01 09:19:40;;;;;;;;;20.00;18.00;;;;;6.36;57.61;102403.31;5082266;28;11498;-76
2021/03/01 09:22:43;;;;;;;;;22.50;17.00;;;;;6.48;59.21;102406.72;5088419;28;11524;-77
2021/03/01 09:25:39;;;;;;;;;17.25;17.25;;;;;6.23;59.98;102399.09;5084094;28;11526;-76
2021/03/01 09:28:38;;;;;;;;;18.75;18.75;;;;;6.17;60.10;102408.34;5089843;28;11558;-77
2021/03/01 09:31:37;;;;;;;;;20.00;19.25;;;;;6.21;60.70;102408.66;5087655;28;11644;-76
2021/03/01 09:34:35;;;;;;;;;5.25;5.25;;;;;6.10;61.30;102410.47;5061932;28;11693;-76
2021/03/01 09:37:31;;;;;;;;;15.25;15.25;;;;;6.01;61.51;102412.88;5086524;28;11459;-77
2021/03/01 09:40:27;;;;;;;;;21.25;20.25;;;;;6.06;62.27;102421.16;5072351;28;11613;-75
2021/03/01 09:43:24;;;;;;;;;22.50;22.50;;;;;6.09;63.21;102417.06;5086958;28;11507;-76
2021/03/01 09:46:20;;;;;;;;;13.75;13.75;;;;;6.37;62.05;102424.22;5090134;28;11521;-77
2021/03/01 09:49:17;;;;;;;;;13.25;13.25;;;;;6.51;58.85;102419.09;5072897;28;11505;-75
2021/03/01 09:51:47;;;;;;;;;9.00;6.25;;;;;6.38;59.30;102428.63;5069579;28;12265;-77
2021/03/01 09:54:43;;;;;;;;;11.50;11.50;;;;;6.29;59.70;102427.44;5072582;28;11472;-75
2021/03/01 09:57:34;;;;;;;;;9.75;9.75;;;;;6.27;60.64;102422.19;5087353;28;11514;-77
2021/03/01 10:00:24;;;;;;;;;9.75;9.75;;;;;6.33;60.61;102421.16;5089670;28;11484;-76
2021/03/01 10:03:01;;;;;;;;;2.75;2.75;;;;;6.24;59.41;102424.63;5069530;28;11509;-74
2021/03/01 10:05:31;;;;;;;;;9.00;9.00;;;;;6.68;57.67;102423.41;5084665;28;12258;-74
2021/03/01 10:08:06;;;;;;;;;8.50;8.00;;;;;6.83;56.22;102427.38;5086638;28;11555;-75
2021/03/01 10:10:38;;;;;;;;;7.50;7.50;;;;;6.85;57.08;102426.00;5070153;28;11422;-75
2021/03/01 10:13:08;;;;;;;;;12.50;12.50;;;;;7.43;57.12;102423.31;5069841;28;11420;-74
2021/03/01 10:15:47;;;;;;;;;9.50;9.50;;;;;7.47;54.88;102425.28;5067973;28;12173;-74
2021/03/01 10:18:15;;;;;;;;;10.50;10.50;;;;;7.44;52.59;102417.56;5086481;28;11437;-75
2021/03/01 10:20:54;;;;;;;;;6.50;6.50;;;;;7.43;53.80;102415.06;5086141;28;11379;-75
2021/03/01 10:23:26;;;;;;;;;11.00;10.25;;;;;7.07;54.56;102419.56;5066870;28;11409;-74
2021/03/01 10:26:23;;;;;;;;;7.25;7.25;;;;;7.89;53.86;102418.84;5088957;28;11423;-75
2021/03/01 10:29:01;;;;;;;;;7.25;7.25;;;;;8.49;51.99;102411.81;5080801;28;11449;-73
2021/03/01 10:31:34;;;;;;;;;6.00;6.00;;;;;8.85;51.42;102414.56;5084599;28;12280;-74
2021/03/01 10:34:02;;;;;;;;;7.50;7.50;;;;;9.28;51.62;102417.78;5084855;28;11350;-75
2021/03/01 10:36:53;;;;;;;;;8.50;8.50;;;;;9.49;51.09;102419.38;5068857;28;11370;-74
2021/03/01 10:39:33;;;;;;;;;8.00;8.00;;;;;9.80;50.26;102417.34;5069228;28;11369;-75
2021/03/01 10:42:13;;;;;;;;;8.75;8.75;;;;;9.64;49.42;102438.66;5085367;28;11175;-74
2021/03/01 10:45:00;;;;;;;;;12.67;12.67;;;;;9.43;49.75;102428.78;5084431;28;11048;-74
2021/03/01 10:47:30;;;;;;;;;7.25;7.25;;;;;8.93;49.88;102425.06;5083956;28;12193;-75
2021/03/01 10:50:03;;;;;;;;;8.00;8.00;;;;;8.84;49.50;102435.81;5084928;28;10944;-74
2021/03/01 10:52:31;;;;;;;;;26.75;24.25;;;;;8.82;49.75;102434.47;5084115;28;11115;-74
2021/03/01 10:54:58;;;;;;;;;15.75;15.75;;;;;8.81;50.41;102436.34;5085001;28;11377;-74
2021/03/01 10:57:26;;;;;;;;;10.75;10.75;;;;;8.52;49.94;102438.84;5085323;28;11393;-75
2021/03/01 10:59:55;;;;;;;;;9.50;8.00;;;;;8.64;51.49;102439.41;5083328;28;11234;-75
2021/03/01 11:02:23;;;;;;;;;4.50;4.50;;;;;8.29;50.29;102444.84;5084437;28;11058;-75
2021/03/01 11:04:52;;;;;;;;;21.75;17.75;;;;;8.31;50.49;102435.22;5085485;28;11006;-74
2021/03/01 11:07:20;;;;;;;;;19.00;18.50;;;;;8.24;51.15;102442.09;5084293;28;11424;-74
2021/03/01 11:09:48;;;;;;;;;18.50;18.50;;;;;8.25;52.19;102438.22;5082380;28;11387;-74
2021/03/01 11:12:16;;;;;;;;;7.75;7.75;;;;;7.98;51.05;102446.72;5084091;28;11459;-74
2021/03/01 11:14:43;;;;;;;;;10.75;10.25;;;;;7.42;51.60;102439.00;5084754;28;11385;-75
2021/03/01 11:17:12;;;;;;;;;16.25;16.25;;;;;7.70;52.62;102439.72;5082396;28;11361;-74
2021/03/01 11:19:40;;;;;;;;;7.50;7.50;;;;;7.48;52.38;102439.88;5067093;28;11391;-73
2021/03/01 11:22:08;;;;;;;;;10.00;10.00;;;;;7.02;52.02;102438.78;5085141;28;11398;-75
2021/03/01 11:24:36;;;;;;;;;10.25;10.25;;;;;7.31;52.96;102431.81;5084028;28;11346;-74
2021/03/01 11:27:04;;;;;;;;;7.50;7.50;;;;;7.25;52.87;102443.88;5068963;28;11504;-74
2021/03/01 11:30:00;;;;;;;;;9.25;9.25;;;;;6.90;53.04;102442.56;5080998;28;11353;-74
2021/03/01 11:32:56;;;;;;;;;13.50;13.50;;;;;6.94;54.25;102435.41;5083690;28;11379;-73
2021/03/01 11:35:54;;;;;;;;;9.25;9.00;;;;;6.99;54.12;102440.13;5083832;28;11493;-73
2021/03/01 11:38:51;;;;;;;;;7.75;7.75;;;;;6.89;54.12;102446.38;5063322;28;11420;-74
2021/03/01 11:41:19;;;;;;;;;28.00;26.75;;;;;7.14;53.54;102443.00;5051062;28;11411;-74
2021/03/01 11:43:49;;;;;;;;;18.25;14.75;;;;;7.18;54.20;102440.53;5084871;28;11535;-74
2021/03/01 11:46:17;;;;;;;;;30.75;28.25;;;;;7.33;53.25;102437.88;5081810;28;11601;-74
2021/03/01 11:48:47;;;;;;;;;11.75;11.25;;;;;7.10;51.99;102441.03;5064644;28;11531;-74
2021/03/01 11:51:16;;;;;;;;;10.00;10.00;;;;;7.07;52.26;102456.16;5080632;28;11458;-75
2021/03/01 11:53:44;;;;;;;;;8.50;8.50;;;;;7.05;52.70;102452.00;5072469;28;11495;-73
2021/03/01 11:56:13;;;;;;;;;11.00;11.00;;;;;7.13;53.07;102455.09;5083248;28;11364;-73
2021/03/01 11:58:41;;;;;;;;;17.50;17.50;;;;;7.38;52.85;102448.91;5063289;28;11414;-74
2021/03/01 12:01:30;;;;;;;;;23.50;22.00;;;;;7.45;53.37;102457.78;5070406;28;12185;-73
2021/03/01 12:04:26;;;;;;;;;12.75;12.75;;;;;7.40;53.72;102460.47;5083321;28;11465;-74
2021/03/01 12:06:54;;;;;;;;;12.00;12.00;;;;;7.37;51.93;102468.47;5081839;28;12228;-75
2021/03/01 12:09:50;;;;;;;;;9.25;9.25;;;;;7.42;52.79;102463.78;5084051;28;11470;-75
2021/03/01 12:12:31;;;;;;;;;11.00;11.00;;;;;6.96;52.71;102454.41;5085297;28;11393;-75
2021/03/01 12:15:04;;;;;;;;;22.50;20.75;;;;;7.26;52.74;102459.28;5047232;28;11470;-76
2021/03/01 12:17:59;;;;;;;;;11.75;11.75;;;;;7.06;52.19;102451.75;5078121;28;11428;-74
2021/03/01 12:20:43;;;;;;;;;14.50;13.25;;;;;7.07;52.56;102458.91;5084318;28;12264;-74
2021/03/01 12:23:39;;;;;;;;;12.50;9.25;;;;;6.71;52.91;102459.72;5082238;28;11455;-74
2021/03/01 12:26:06;;;;;;;;;15.00;15.00;;;;;6.81;52.90;102448.78;5073436;28;11405;-73
2021/03/01 12:28:33;;;;;;;;;15.25;15.00;;;;;6.77;53.41;102458.66;5084453;28;11466;-74
2021/03/01 12:31:00;;;;;;;;;21.00;19.00;;;;;6.85;53.30;102461.75;5083218;28;11480;-73
2021/03/01 12:33:56;;;;;;;;;13.50;13.50;;;;;6.67;54.44;102459.38;5068338;28;11482;-74
2021/03/01 12:36:51;;;;;;;;;19.25;19.25;;;;;6.82;54.25;102459.50;5081354;28;11459;-74
2021/03/01 12:39:47;;;;;;;;;73.00;51.25;;;;;6.91;54.18;102466.22;5083083;28;11672;-75
2021/03/01 12:42:43;;;;;;;;;65.25;47.75;;;;;6.87;52.48;102467.00;5068854;28;11478;-74
2021/03/01 12:45:38;;;;;;;;;49.75;44.25;;;;;6.91;53.04;102457.13;5081539;28;12236;-75
2021/03/01 12:48:34;;;;;;;;;24.50;24.50;;;;;6.87;51.89;102476.06;5080212;28;11557;-75